createdAt,value
2022-11-05T00:03:21.048Z,4.30
2022-11-05T00:08:33.048Z,3.42
2022-11-05T00:13:45.281Z,3.65
2022-11-05T00:18:39.739Z,3.58
2022-11-05T00:23:51.561Z,4.00
2022-11-05T00:28:45.129Z,3.40
2022-11-05T00:33:42.721Z,3.70
2022-11-05T00:38:36.400Z,3.25
2022-11-05T00:43:48.543Z,4.00
2022-11-05T00:49:00.895Z,6.38
2022-11-05T00:53:55.615Z,5.30
2022-11-05T00:58:49.606Z,6.15
2022-11-05T01:03:46.213Z,5.22
2022-11-05T01:08:44.738Z,6.18
2022-11-05T01:13:39.105Z,5.82
2022-11-05T01:18:32.544Z,4.93
2022-11-05T01:23:26.586Z,4.13
2022-11-05T01:28:20.227Z,4.40
2022-11-05T01:33:14.290Z,4.90
2022-11-05T01:38:08.220Z,4.80
2022-11-05T01:43:02.334Z,5.70
2022-11-05T01:47:58.378Z,5.53
2022-11-05T01:52:55.265Z,6.15
2022-11-05T01:57:48.862Z,6.10
2022-11-05T02:02:42.831Z,6.53
2022-11-05T02:07:37.024Z,7.85
2022-11-05T02:12:31.844Z,7.40
2022-11-05T02:17:56.411Z,9.15
2022-11-05T02:23:14.300Z,7.90
2022-11-05T02:28:10.270Z,6.88
2022-11-05T02:33:16.869Z,7.18
2022-11-05T02:38:33.502Z,6.22
2022-11-05T02:44:22.721Z,5.90
2022-11-05T02:49:24.505Z,5.40
2022-11-05T02:54:33.259Z,4.95
2022-11-05T02:59:26.398Z,4.72
2022-11-05T03:04:22.437Z,4.93
2022-11-05T03:09:42.700Z,5.68
2022-11-05T03:14:35.969Z,4.93
2022-11-05T03:20:02.430Z,5.28
2022-11-05T03:25:07.421Z,5.88
2022-11-05T03:30:04.180Z,5.78
2022-11-05T03:35:01.034Z,6.05
2022-11-05T03:39:58.782Z,6.38
2022-11-05T03:44:54.967Z,7.22
2022-11-05T03:50:10.359Z,6.65
2022-11-05T03:55:04.934Z,7.05
2022-11-05T03:59:57.795Z,7.18
2022-11-05T04:04:51.103Z,7.45
2022-11-05T04:10:03.171Z,8.13
2022-11-05T04:14:56.873Z,8.38
2022-11-05T04:20:09.378Z,8.00
2022-11-05T04:25:03.427Z,8.02
2022-11-05T04:30:15.550Z,8.85
2022-11-05T04:35:08.369Z,7.88
2022-11-05T04:40:02.395Z,7.28
2022-11-05T04:44:56.159Z,7.22
2022-11-05T04:49:49.751Z,6.28
2022-11-05T04:54:43.136Z,5.90
2022-11-05T04:59:36.853Z,6.13
2022-11-05T05:04:30.206Z,6.53
2022-11-05T05:09:23.729Z,5.68
2022-11-05T05:14:18.052Z,4.85
2022-11-05T05:19:11.421Z,5.03
2022-11-05T05:24:27.616Z,4.88
2022-11-05T05:29:21.157Z,4.55
2022-11-05T05:34:16.362Z,3.35
2022-11-05T05:39:13.377Z,3.67
2022-11-05T05:44:08.350Z,3.08
2022-11-05T05:49:11.200Z,3.03
2022-11-05T05:54:07.295Z,3.05
2022-11-05T05:59:01.384Z,2.85
2022-11-05T06:03:55.296Z,3.03
2022-11-05T06:08:50.030Z,2.67
2022-11-05T06:13:43.777Z,2.42
2022-11-05T06:18:37.676Z,2.20
2022-11-05T06:23:33.150Z,3.05
2022-11-05T06:28:26.334Z,2.25
2022-11-05T06:33:19.561Z,2.58
2022-11-05T06:38:13.726Z,2.33
2022-11-05T06:43:07.407Z,2.90
2022-11-05T06:48:00.381Z,2.92
2022-11-05T06:52:58.326Z,2.60
2022-11-05T06:57:51.806Z,2.72
2022-11-05T07:02:44.748Z,2.97
2022-11-05T07:07:38.686Z,2.33
2022-11-05T07:12:32.829Z,3.40
2022-11-05T07:17:27.669Z,2.58
2022-11-05T07:22:21.601Z,2.70
2022-11-05T07:27:15.638Z,2.38
2022-11-05T07:32:09.559Z,2.08
2022-11-05T07:37:03.973Z,2.45
2022-11-05T07:41:58.942Z,2.30
2022-11-05T07:46:59.199Z,2.42
2022-11-05T07:51:54.145Z,2.60
2022-11-05T07:56:49.790Z,2.88
2022-11-05T08:01:43.834Z,2.40
2022-11-05T08:06:38.396Z,2.28
2022-11-05T08:11:33.057Z,2.20
2022-11-05T08:16:26.803Z,2.10
2022-11-05T08:21:21.322Z,3.78
2022-11-05T08:26:15.904Z,2.78
2022-11-05T08:31:09.762Z,2.88
2022-11-05T08:36:04.437Z,3.58
2022-11-05T08:40:58.327Z,2.63
2022-11-05T08:45:51.678Z,2.95
2022-11-05T08:50:45.659Z,2.42
2022-11-05T08:55:39.619Z,2.65
2022-11-05T09:00:35.352Z,2.78
2022-11-05T09:05:30.050Z,4.32
2022-11-05T09:10:22.689Z,2.55
2022-11-05T09:15:16.449Z,2.60
2022-11-05T09:20:13.595Z,2.63
2022-11-05T09:25:10.819Z,3.17
2022-11-05T09:30:06.206Z,2.78
2022-11-05T09:35:03.138Z,2.33
2022-11-05T09:39:56.583Z,2.28
2022-11-05T09:45:00.271Z,2.10
2022-11-05T09:49:55.249Z,2.47
2022-11-05T09:54:49.222Z,2.50
2022-11-05T10:00:05.485Z,2.10
2022-11-05T10:05:06.540Z,1.65
2022-11-05T10:10:05.252Z,2.13
2022-11-05T10:15:13.612Z,1.70
2022-11-05T10:20:24.105Z,1.35
2022-11-05T10:25:21.487Z,1.20
2022-11-05T10:30:15.862Z,1.10
2022-11-05T10:35:15.146Z,1.50
2022-11-05T10:40:15.459Z,1.33
2022-11-05T10:45:20.126Z,1.80
2022-11-05T10:50:26.596Z,1.50
2022-11-05T10:55:38.465Z,1.60
2022-11-05T11:00:51.211Z,1.85
2022-11-05T11:05:45.194Z,1.67
2022-11-05T11:10:50.043Z,1.58
2022-11-05T11:16:26.695Z,1.70
2022-11-05T11:21:23.824Z,1.92
2022-11-05T11:26:18.863Z,1.50
2022-11-05T11:31:23.326Z,1.60
2022-11-05T11:36:20.543Z,1.70
2022-11-05T11:41:28.669Z,1.92
2022-11-05T11:46:22.882Z,1.35
2022-11-05T11:51:40.875Z,1.70
2022-11-05T11:56:45.191Z,1.90
2022-11-05T12:02:07.770Z,1.48
2022-11-05T12:07:02.682Z,2.17
2022-11-05T12:12:01.541Z,1.92
2022-11-05T12:17:03.942Z,2.47
2022-11-05T12:22:05.629Z,2.40
2022-11-05T12:27:01.769Z,1.90
2022-11-05T12:32:49.488Z,1.92
2022-11-05T12:38:22.766Z,1.75
2022-11-05T12:43:46.491Z,2.85
2022-11-05T12:49:19.680Z,2.47
2022-11-05T12:54:39.903Z,2.72
2022-11-05T12:59:42.885Z,2.50
2022-11-05T13:04:53.312Z,3.40
2022-11-05T13:10:28.161Z,2.60
2022-11-05T13:15:48.069Z,2.47
2022-11-05T13:20:45.730Z,2.45
2022-11-05T13:25:43.146Z,2.50
2022-11-05T13:30:39.252Z,2.85
2022-11-05T13:35:44.039Z,3.15
2022-11-05T13:40:56.346Z,3.10
2022-11-05T13:46:18.727Z,3.35
2022-11-05T13:51:33.582Z,3.08
2022-11-05T13:56:50.275Z,3.35
2022-11-05T14:01:59.531Z,3.35
2022-11-05T14:06:53.984Z,3.65
2022-11-05T14:11:55.469Z,3.42
2022-11-05T14:16:52.078Z,3.85
2022-11-05T14:21:54.083Z,3.38
2022-11-05T14:27:10.719Z,3.05
2022-11-05T14:32:23.817Z,3.10
2022-11-05T14:37:34.557Z,3.80
2022-11-05T14:42:30.185Z,3.83
2022-11-05T14:47:25.183Z,4.13
2022-11-05T14:52:19.108Z,3.47
2022-11-05T14:57:17.247Z,4.20
2022-11-05T15:02:19.201Z,4.10
2022-11-05T15:07:30.207Z,3.90
2022-11-05T15:12:48.595Z,3.72
2022-11-05T15:17:58.655Z,3.93
2022-11-05T15:22:57.005Z,4.35
2022-11-05T15:28:06.721Z,4.40
2022-11-05T15:33:20.416Z,3.80
2022-11-05T15:38:31.617Z,3.67
2022-11-05T15:43:25.830Z,3.97
2022-11-05T15:48:19.976Z,4.63
2022-11-05T15:53:56.523Z,8.48
2022-11-05T15:59:17.146Z,7.73
2022-11-05T16:04:32.828Z,9.20
2022-11-05T16:09:30.148Z,8.60
2022-11-05T16:14:43.102Z,5.63
2022-11-05T16:19:59.326Z,6.25
2022-11-05T16:24:53.629Z,6.28
2022-11-05T16:29:50.750Z,6.50
2022-11-05T16:34:53.808Z,6.60
2022-11-05T16:39:47.799Z,6.60
2022-11-05T16:44:43.073Z,5.70
2022-11-05T16:49:39.878Z,6.45
2022-11-05T16:54:34.526Z,10.98
2022-11-05T16:59:28.575Z,16.40
2022-11-05T17:04:22.985Z,33.00
2022-11-05T17:09:16.680Z,7.93
2022-11-05T17:14:13.848Z,6.38
2022-11-05T17:19:08.679Z,6.53
2022-11-05T17:24:02.912Z,6.85
2022-11-05T17:28:58.079Z,8.07
2022-11-05T17:33:50.852Z,7.93
2022-11-05T17:38:44.958Z,7.78
2022-11-05T17:43:38.630Z,9.20
2022-11-05T17:48:32.908Z,9.90
2022-11-05T17:53:26.017Z,8.93
2022-11-05T17:58:20.574Z,8.98
2022-11-05T18:03:14.674Z,7.57
2022-11-05T18:08:09.734Z,7.43
2022-11-05T18:13:03.602Z,8.30
2022-11-05T18:17:57.972Z,6.78
2022-11-05T18:22:50.847Z,6.25
2022-11-05T18:27:44.109Z,6.75
2022-11-05T18:32:37.008Z,7.30
2022-11-05T18:37:30.337Z,7.57
2022-11-05T18:42:23.169Z,8.07
2022-11-05T18:47:16.990Z,7.75
2022-11-05T18:52:11.150Z,7.80
2022-11-05T18:57:05.188Z,7.47
2022-11-05T19:01:58.473Z,6.75
2022-11-05T19:06:52.295Z,5.35
2022-11-05T19:11:44.906Z,5.57
2022-11-05T19:16:38.214Z,6.50
2022-11-05T19:21:32.285Z,6.15
2022-11-05T19:26:28.585Z,6.65
2022-11-05T19:31:24.384Z,6.00
2022-11-05T19:36:19.490Z,11.32
2022-11-05T19:41:14.882Z,9.43
2022-11-05T19:46:12.270Z,7.78
2022-11-05T19:51:27.230Z,4.90
2022-11-05T19:56:25.411Z,5.90
2022-11-05T20:01:20.129Z,6.20
2022-11-05T20:06:21.853Z,6.13
2022-11-05T20:11:15.007Z,5.72
2022-11-05T20:16:09.119Z,4.57
2022-11-05T20:21:05.473Z,5.47
2022-11-05T20:25:59.843Z,4.53
2022-11-05T20:30:53.732Z,3.78
2022-11-05T20:35:47.723Z,5.30
2022-11-05T20:40:40.691Z,4.55
2022-11-05T20:45:34.557Z,4.03
2022-11-05T20:50:27.518Z,4.93
2022-11-05T20:55:21.070Z,4.03
2022-11-05T21:00:17.022Z,3.35
2022-11-05T21:05:11.560Z,13.38
2022-11-05T21:10:06.570Z,4.70
2022-11-05T21:15:00.487Z,3.78
2022-11-05T21:19:55.063Z,4.47
2022-11-05T21:24:47.777Z,4.53
2022-11-05T21:29:41.759Z,4.38
2022-11-05T21:34:35.934Z,3.80
2022-11-05T21:39:29.462Z,3.85
2022-11-05T21:44:23.060Z,4.85
2022-11-05T21:49:16.896Z,3.50
2022-11-05T21:54:29.526Z,3.35
2022-11-05T21:59:42.643Z,3.20
2022-11-05T22:04:41.806Z,4.65
2022-11-05T22:09:34.958Z,4.70
2022-11-05T22:14:28.523Z,3.95
2022-11-05T22:19:23.046Z,9.98
2022-11-05T22:24:16.194Z,4.05
2022-11-05T22:29:09.242Z,4.18
2022-11-05T22:34:03.080Z,4.82
2022-11-05T22:38:56.218Z,4.35
2022-11-05T22:43:49.206Z,3.92
2022-11-05T22:48:42.322Z,4.25
2022-11-05T22:53:35.935Z,3.00
2022-11-05T22:58:28.996Z,2.53
2022-11-05T23:03:22.814Z,2.67
2022-11-05T23:08:34.766Z,14.77
2022-11-05T23:13:28.257Z,5.10
2022-11-05T23:18:40.146Z,4.32
2022-11-05T23:23:51.873Z,3.90
2022-11-05T23:28:45.575Z,5.50
2022-11-05T23:33:39.572Z,4.47
2022-11-05T23:38:36.328Z,5.97
2022-11-05T23:43:47.220Z,3.10
2022-11-05T23:48:41.258Z,2.90
2022-11-05T23:53:36.827Z,2.55
2022-11-05T23:58:30.755Z,3.45
